Baker, MT

2:22 PM MST on December 07, 2016 (GMT -0700)
Baker Municipal | | Change Station
Active Advisory: Wind Chill Advisory

Elev 2972 ft 46.35 °N, 104.26 °W | Updated 1 hour ago

Mostly Cloudy
Mostly Cloudy
2 °F
Feels Like -22 °F
N
26
Wind Variable Wind from WNW
Gusts 30 mph

Today
High -- | Low -- °F
--% Chance of Precip.
Yesterday
High -- | Low -- °F
Precip. -- in
Pressure 30.60 in
Visibility 9.0 miles
Clouds Mostly Cloudy 1600 ft
Windchill -22 °F
Dew Point -6 °F
Humidity 69%
Rainfall 0.00 in
Snow Depth Not available.
7:27 AM 4:10 PM
First Quarter, 56% visible
METAR KBHK 071951Z AUTO 29023G26KT 9SM BKN016 M17/M21 A3038 RMK AO2 PK WND 31030/1923 SLP360 T11671211
Pressure 30.60 in
Visibility 9.0 miles
Clouds Mostly Cloudy 1600 ft
Windchill -22 °F
Dew Point -6 °F
Humidity 69%
Rainfall 0.00 in
Snow Depth Not available.
7:27 AM 4:10 PM
First Quarter, 56% visible
METAR KBHK 071951Z AUTO 29023G26KT 9SM BKN016 M17/M21 A3038 RMK AO2 PK WND 31030/1923 SLP360 T11671211

10-Day Weather Forecast

Almanac

Astronomy

Dec. 07, 2016 Rise Set
Actual Time
Civil Twilight
Nautical Twilight
Astronomical Twilight
Moon
Length of Visible Light
Length of Day
Tomorrow will be .
, % of the Moon is Illuminated

Today's Extremes

State Highs State Lows

Community

WunderPhotos

Upload Photos

1,956,181 photos uploaded!

WunderBlog® & News

Nearby

Air Quality

  Air Quality AQ Index Pollutant
Not available.

Snow Depth

Station Depth Elevation

Earthquake Activity

City Distance Mag. Time & Date
Minimum magnitude displayed is 2.5.

Coastal Water Temperatures

Place Temperature

Stations

Nearby Weather Stations

Station Location Temp. Windchill Dew Point Humidity Wind Precip. Elev Updated Type
                   

Watches & Warnings

Wind Chill Advisory
Issued: 9:51 AM MST Dec. 7, 2016 – National Weather Service

... Wind Chill Advisory now in effect until 11 am MST Thursday...

The Wind Chill Advisory is now in effect until 11 am MST
Thursday.

* Impacts... dangerously low wind chills... posing a threat of
frost bite or hypothermia if precautions are not taken.

* Timing... tonight through Thursday morning

* wind chill values... 20 to 30 below zero.

Precautionary/preparedness actions...

A Wind Chill Advisory means that very cold air and strong winds
will combine to generate low wind chills. This will result in
frost bite and lead to hypothermia if precautions are not taken.
If you must venture outdoors... make sure you wear a hat and
gloves.



Http://weather.Gov/Billings